sensor_id;sensor_type;location;lat;lon;timestamp;P1;durP1;ratioP1;P2;durP2;ratioP2
18170;SDS011;9210;48.358;10.902;2023-04-24T00:00:39;2.10;;;1.60;;
18170;SDS011;9210;48.358;10.902;2023-04-24T00:03:07;2.80;;;1.37;;
18170;SDS011;9210;48.358;10.902;2023-04-24T00:05:37;3.00;;;1.63;;
18170;SDS011;9210;48.358;10.902;2023-04-24T00:08:07;2.10;;;1.40;;
18170;SDS011;9210;48.358;10.902;2023-04-24T00:10:36;3.70;;;1.50;;
18170;SDS011;9210;48.358;10.902;2023-04-24T00:13:04;5.00;;;1.53;;
18170;SDS011;9210;48.358;10.902;2023-04-24T00:15:33;2.67;;;1.63;;
18170;SDS011;9210;48.358;10.902;2023-04-24T00:18:01;1.93;;;1.40;;
18170;SDS011;9210;48.358;10.902;2023-04-24T00:20:30;2.30;;;1.17;;
18170;SDS011;9210;48.358;10.902;2023-04-24T00:23:01;3.23;;;1.37;;
18170;SDS011;9210;48.358;10.902;2023-04-24T00:25:29;1.93;;;1.10;;
18170;SDS011;9210;48.358;10.902;2023-04-24T00:27:58;2.33;;;1.20;;
18170;SDS011;9210;48.358;10.902;2023-04-24T00:30:26;3.50;;;1.43;;
18170;SDS011;9210;48.358;10.902;2023-04-24T00:32:55;1.90;;;1.20;;
18170;SDS011;9210;48.358;10.902;2023-04-24T00:35:23;2.40;;;1.30;;
18170;SDS011;9210;48.358;10.902;2023-04-24T00:37:52;1.77;;;1.10;;
18170;SDS011;9210;48.358;10.902;2023-04-24T00:40:22;2.77;;;1.00;;
18170;SDS011;9210;48.358;10.902;2023-04-24T00:42:50;2.40;;;0.90;;
18170;SDS011;9210;48.358;10.902;2023-04-24T00:45:19;1.73;;;1.10;;
18170;SDS011;9210;48.358;10.902;2023-04-24T00:47:48;2.67;;;1.07;;
18170;SDS011;9210;48.358;10.902;2023-04-24T00:50:16;1.20;;;1.10;;
18170;SDS011;9210;48.358;10.902;2023-04-24T00:52:47;2.27;;;1.20;;
18170;SDS011;9210;48.358;10.902;2023-04-24T00:55:16;3.47;;;1.40;;
18170;SDS011;9210;48.358;10.902;2023-04-24T00:57:46;1.53;;;1.20;;
18170;SDS011;9210;48.358;10.902;2023-04-24T01:00:15;2.40;;;0.90;;
18170;SDS011;9210;48.358;10.902;2023-04-24T01:02:43;1.80;;;1.10;;
18170;SDS011;9210;48.358;10.902;2023-04-24T01:05:13;1.90;;;1.17;;
18170;SDS011;9210;48.358;10.902;2023-04-24T01:07:43;1.20;;;1.00;;
18170;SDS011;9210;48.358;10.902;2023-04-24T01:10:12;1.40;;;1.00;;
18170;SDS011;9210;48.358;10.902;2023-04-24T01:12:41;1.47;;;1.00;;
18170;SDS011;9210;48.358;10.902;2023-04-24T01:15:13;2.77;;;1.20;;
18170;SDS011;9210;48.358;10.902;2023-04-24T01:17:41;1.37;;;1.10;;
18170;SDS011;9210;48.358;10.902;2023-04-24T01:20:10;2.27;;;1.10;;
18170;SDS011;9210;48.358;10.902;2023-04-24T01:22:41;1.67;;;1.10;;
18170;SDS011;9210;48.358;10.902;2023-04-24T01:25:10;1.20;;;0.93;;
18170;SDS011;9210;48.358;10.902;2023-04-24T01:27:38;2.80;;;1.10;;
18170;SDS011;9210;48.358;10.902;2023-04-24T01:30:07;1.87;;;1.10;;
18170;SDS011;9210;48.358;10.902;2023-04-24T01:32:36;1.87;;;1.10;;
18170;SDS011;9210;48.358;10.902;2023-04-24T01:35:05;1.30;;;0.80;;
18170;SDS011;9210;48.358;10.902;2023-04-24T01:37:34;3.23;;;1.20;;
18170;SDS011;9210;48.358;10.902;2023-04-24T01:40:06;1.80;;;1.10;;
18170;SDS011;9210;48.358;10.902;2023-04-24T01:42:35;1.90;;;1.20;;
18170;SDS011;9210;48.358;10.902;2023-04-24T01:45:04;3.43;;;1.17;;
18170;SDS011;9210;48.358;10.902;2023-04-24T01:47:33;1.97;;;1.17;;
18170;SDS011;9210;48.358;10.902;2023-04-24T01:50:02;1.90;;;1.33;;
18170;SDS011;9210;48.358;10.902;2023-04-24T01:52:31;2.43;;;1.10;;
18170;SDS011;9210;48.358;10.902;2023-04-24T01:54:59;3.23;;;1.17;;
18170;SDS011;9210;48.358;10.902;2023-04-24T01:57:30;2.90;;;1.20;;
18170;SDS011;9210;48.358;10.902;2023-04-24T01:59:59;1.80;;;1.13;;
18170;SDS011;9210;48.358;10.902;2023-04-24T02:02:32;4.67;;;1.20;;
18170;SDS011;9210;48.358;10.902;2023-04-24T02:05:02;1.97;;;1.00;;
18170;SDS011;9210;48.358;10.902;2023-04-24T02:07:32;1.60;;;1.17;;
18170;SDS011;9210;48.358;10.902;2023-04-24T02:10:01;4.93;;;0.80;;
18170;SDS011;9210;48.358;10.902;2023-04-24T02:12:32;2.50;;;1.20;;
18170;SDS011;9210;48.358;10.902;2023-04-24T02:15:00;2.87;;;1.40;;
18170;SDS011;9210;48.358;10.902;2023-04-24T02:17:29;4.17;;;1.20;;
18170;SDS011;9210;48.358;10.902;2023-04-24T02:19:58;1.80;;;1.10;;
18170;SDS011;9210;48.358;10.902;2023-04-24T02:22:26;2.47;;;1.40;;
18170;SDS011;9210;48.358;10.902;2023-04-24T02:24:55;2.60;;;1.37;;
18170;SDS011;9210;48.358;10.902;2023-04-24T02:27:23;1.60;;;1.17;;
18170;SDS011;9210;48.358;10.902;2023-04-24T02:29:53;1.90;;;1.20;;
18170;SDS011;9210;48.358;10.902;2023-04-24T02:32:22;3.57;;;1.37;;
18170;SDS011;9210;48.358;10.902;2023-04-24T02:34:50;2.00;;;1.30;;
18170;SDS011;9210;48.358;10.902;2023-04-24T02:37:19;2.87;;;1.33;;
18170;SDS011;9210;48.358;10.902;2023-04-24T02:39:47;1.20;;;1.10;;
18170;SDS011;9210;48.358;10.902;2023-04-24T02:42:15;1.57;;;1.07;;
18170;SDS011;9210;48.358;10.902;2023-04-24T02:44:44;2.20;;;1.00;;
18170;SDS011;9210;48.358;10.902;2023-04-24T02:47:14;2.97;;;1.23;;
18170;SDS011;9210;48.358;10.902;2023-04-24T02:49:42;2.50;;;1.20;;
18170;SDS011;9210;48.358;10.902;2023-04-24T02:52:11;2.27;;;1.40;;
18170;SDS011;9210;48.358;10.902;2023-04-24T02:54:41;1.77;;;1.30;;
18170;SDS011;9210;48.358;10.902;2023-04-24T02:57:09;2.17;;;1.10;;
18170;SDS011;9210;48.358;10.902;2023-04-24T02:59:40;4.17;;;1.40;;
18170;SDS011;9210;48.358;10.902;2023-04-24T03:02:09;3.47;;;1.30;;
18170;SDS011;9210;48.358;10.902;2023-04-24T03:04:39;1.53;;;1.10;;
18170;SDS011;9210;48.358;10.902;2023-04-24T03:07:09;3.40;;;1.23;;
18170;SDS011;9210;48.358;10.902;2023-04-24T03:09:38;1.47;;;1.00;;
18170;SDS011;9210;48.358;10.902;2023-04-24T03:12:07;2.27;;;1.20;;
18170;SDS011;9210;48.358;10.902;2023-04-24T03:14:36;3.17;;;1.30;;
18170;SDS011;9210;48.358;10.902;2023-04-24T03:17:04;2.33;;;1.23;;
18170;SDS011;9210;48.358;10.902;2023-04-24T03:19:33;2.77;;;1.20;;
18170;SDS011;9210;48.358;10.902;2023-04-24T03:22:08;2.53;;;1.30;;
18170;SDS011;9210;48.358;10.902;2023-04-24T03:24:38;1.20;;;1.10;;
18170;SDS011;9210;48.358;10.902;2023-04-24T03:27:07;2.97;;;1.50;;
18170;SDS011;9210;48.358;10.902;2023-04-24T03:30:02;2.07;;;1.20;;
18170;SDS011;9210;48.358;10.902;2023-04-24T03:32:40;2.77;;;1.50;;
18170;SDS011;9210;48.358;10.902;2023-04-24T03:35:12;2.43;;;1.20;;
18170;SDS011;9210;48.358;10.902;2023-04-24T03:37:42;1.43;;;1.20;;
18170;SDS011;9210;48.358;10.902;2023-04-24T03:40:30;2.80;;;1.30;;
18170;SDS011;9210;48.358;10.902;2023-04-24T03:43:01;2.80;;;1.53;;
18170;SDS011;9210;48.358;10.902;2023-04-24T03:45:30;4.20;;;1.60;;
18170;SDS011;9210;48.358;10.902;2023-04-24T03:47:58;2.80;;;1.40;;
18170;SDS011;9210;48.358;10.902;2023-04-24T03:50:27;2.60;;;1.50;;
18170;SDS011;9210;48.358;10.902;2023-04-24T03:52:58;2.17;;;1.47;;
18170;SDS011;9210;48.358;10.902;2023-04-24T03:55:35;2.40;;;1.60;;
18170;SDS011;9210;48.358;10.902;2023-04-24T03:58:04;3.70;;;1.53;;
18170;SDS011;9210;48.358;10.902;2023-04-24T04:00:33;2.77;;;1.50;;
18170;SDS011;9210;48.358;10.902;2023-04-24T04:03:32;2.87;;;1.27;;
18170;SDS011;9210;48.358;10.902;2023-04-24T04:06:01;2.13;;;1.50;;
18170;SDS011;9210;48.358;10.902;2023-04-24T04:08:31;2.17;;;1.30;;
18170;SDS011;9210;48.358;10.902;2023-04-24T04:11:00;2.83;;;1.70;;
18170;SDS011;9210;48.358;10.902;2023-04-24T04:13:31;4.33;;;1.50;;
18170;SDS011;9210;48.358;10.902;2023-04-24T04:16:00;6.23;;;1.90;;
18170;SDS011;9210;48.358;10.902;2023-04-24T04:18:28;4.97;;;1.20;;
18170;SDS011;9210;48.358;10.902;2023-04-24T04:20:57;1.60;;;1.30;;
18170;SDS011;9210;48.358;10.902;2023-04-24T04:23:27;2.27;;;1.33;;
18170;SDS011;9210;48.358;10.902;2023-04-24T04:26:07;2.57;;;1.60;;
18170;SDS011;9210;48.358;10.902;2023-04-24T04:28:48;3.97;;;1.37;;
18170;SDS011;9210;48.358;10.902;2023-04-24T04:31:17;3.07;;;1.30;;
18170;SDS011;9210;48.358;10.902;2023-04-24T04:33:46;2.33;;;1.17;;
18170;SDS011;9210;48.358;10.902;2023-04-24T04:36:14;2.43;;;1.20;;
18170;SDS011;9210;48.358;10.902;2023-04-24T04:38:49;2.80;;;1.30;;
18170;SDS011;9210;48.358;10.902;2023-04-24T04:41:39;2.03;;;1.20;;
18170;SDS011;9210;48.358;10.902;2023-04-24T04:44:09;2.83;;;1.20;;
18170;SDS011;9210;48.358;10.902;2023-04-24T04:46:39;3.40;;;1.17;;
18170;SDS011;9210;48.358;10.902;2023-04-24T04:49:22;2.30;;;1.20;;
18170;SDS011;9210;48.358;10.902;2023-04-24T04:51:51;2.17;;;1.20;;
18170;SDS011;9210;48.358;10.902;2023-04-24T04:54:20;2.33;;;1.10;;
18170;SDS011;9210;48.358;10.902;2023-04-24T04:56:51;3.47;;;1.50;;
18170;SDS011;9210;48.358;10.902;2023-04-24T04:59:19;3.13;;;1.43;;
18170;SDS011;9210;48.358;10.902;2023-04-24T05:01:53;1.57;;;1.20;;
18170;SDS011;9210;48.358;10.902;2023-04-24T05:04:22;1.50;;;0.93;;
18170;SDS011;9210;48.358;10.902;2023-04-24T05:06:51;3.67;;;1.30;;
18170;SDS011;9210;48.358;10.902;2023-04-24T05:09:21;1.40;;;1.10;;
18170;SDS011;9210;48.358;10.902;2023-04-24T05:11:55;3.77;;;1.20;;
18170;SDS011;9210;48.358;10.902;2023-04-24T05:14:25;2.60;;;1.10;;
18170;SDS011;9210;48.358;10.902;2023-04-24T05:16:54;4.17;;;1.33;;
18170;SDS011;9210;48.358;10.902;2023-04-24T05:19:25;3.50;;;1.27;;
18170;SDS011;9210;48.358;10.902;2023-04-24T05:21:53;4.53;;;1.20;;
18170;SDS011;9210;48.358;10.902;2023-04-24T05:24:22;2.00;;;1.10;;
18170;SDS011;9210;48.358;10.902;2023-04-24T05:27:18;2.30;;;1.00;;
18170;SDS011;9210;48.358;10.902;2023-04-24T05:29:48;1.77;;;1.00;;
18170;SDS011;9210;48.358;10.902;2023-04-24T05:32:17;2.07;;;1.17;;
18170;SDS011;9210;48.358;10.902;2023-04-24T05:34:45;3.17;;;0.80;;
18170;SDS011;9210;48.358;10.902;2023-04-24T05:37:14;2.03;;;0.90;;
18170;SDS011;9210;48.358;10.902;2023-04-24T05:39:43;1.57;;;0.80;;
18170;SDS011;9210;48.358;10.902;2023-04-24T05:42:12;3.13;;;1.07;;
18170;SDS011;9210;48.358;10.902;2023-04-24T05:44:42;2.00;;;0.97;;
18170;SDS011;9210;48.358;10.902;2023-04-24T05:47:10;2.23;;;0.70;;
18170;SDS011;9210;48.358;10.902;2023-04-24T05:49:39;2.13;;;1.00;;
18170;SDS011;9210;48.358;10.902;2023-04-24T05:52:08;1.93;;;0.90;;
18170;SDS011;9210;48.358;10.902;2023-04-24T05:54:38;3.03;;;0.90;;
18170;SDS011;9210;48.358;10.902;2023-04-24T05:57:07;2.37;;;1.10;;
18170;SDS011;9210;48.358;10.902;2023-04-24T05:59:52;1.60;;;1.20;;
18170;SDS011;9210;48.358;10.902;2023-04-24T06:02:21;3.47;;;1.07;;
18170;SDS011;9210;48.358;10.902;2023-04-24T06:04:51;2.23;;;0.90;;
18170;SDS011;9210;48.358;10.902;2023-04-24T06:07:20;1.63;;;0.90;;
18170;SDS011;9210;48.358;10.902;2023-04-24T06:09:48;1.40;;;0.90;;
18170;SDS011;9210;48.358;10.902;2023-04-24T06:12:17;1.70;;;0.80;;
18170;SDS011;9210;48.358;10.902;2023-04-24T06:14:55;0.80;;;0.80;;
18170;SDS011;9210;48.358;10.902;2023-04-24T06:17:42;5.43;;;0.90;;
18170;SDS011;9210;48.358;10.902;2023-04-24T06:20:14;2.10;;;1.00;;
18170;SDS011;9210;48.358;10.902;2023-04-24T06:22:42;1.77;;;0.90;;
18170;SDS011;9210;48.358;10.902;2023-04-24T06:25:11;1.70;;;1.00;;
18170;SDS011;9210;48.358;10.902;2023-04-24T06:27:39;2.17;;;0.90;;
18170;SDS011;9210;48.358;10.902;2023-04-24T06:30:10;1.80;;;0.90;;
18170;SDS011;9210;48.358;10.902;2023-04-24T06:32:39;4.00;;;1.00;;
18170;SDS011;9210;48.358;10.902;2023-04-24T06:35:08;2.00;;;0.70;;
18170;SDS011;9210;48.358;10.902;2023-04-24T06:37:38;0.97;;;0.70;;
18170;SDS011;9210;48.358;10.902;2023-04-24T06:40:07;1.30;;;0.70;;
18170;SDS011;9210;48.358;10.902;2023-04-24T06:42:36;1.73;;;0.90;;
18170;SDS011;9210;48.358;10.902;2023-04-24T06:45:07;2.27;;;0.60;;
18170;SDS011;9210;48.358;10.902;2023-04-24T06:47:37;1.63;;;0.80;;
18170;SDS011;9210;48.358;10.902;2023-04-24T06:50:07;1.00;;;0.70;;
18170;SDS011;9210;48.358;10.902;2023-04-24T06:52:36;1.20;;;1.00;;
18170;SDS011;9210;48.358;10.902;2023-04-24T06:55:04;2.27;;;0.90;;
18170;SDS011;9210;48.358;10.902;2023-04-24T06:57:33;2.73;;;1.00;;
18170;SDS011;9210;48.358;10.902;2023-04-24T07:00:02;1.20;;;0.80;;
18170;SDS011;9210;48.358;10.902;2023-04-24T07:02:31;0.97;;;0.67;;
18170;SDS011;9210;48.358;10.902;2023-04-24T07:05:01;2.60;;;0.70;;
18170;SDS011;9210;48.358;10.902;2023-04-24T07:07:30;1.47;;;0.60;;
18170;SDS011;9210;48.358;10.902;2023-04-24T07:09:59;3.43;;;0.70;;
18170;SDS011;9210;48.358;10.902;2023-04-24T07:12:27;2.47;;;0.60;;
18170;SDS011;9210;48.358;10.902;2023-04-24T07:14:56;2.50;;;0.70;;
18170;SDS011;9210;48.358;10.902;2023-04-24T07:17:25;2.90;;;0.70;;
18170;SDS011;9210;48.358;10.902;2023-04-24T07:19:58;1.60;;;0.60;;
18170;SDS011;9210;48.358;10.902;2023-04-24T07:22:29;2.00;;;0.70;;
18170;SDS011;9210;48.358;10.902;2023-04-24T07:24:58;1.03;;;0.60;;
18170;SDS011;9210;48.358;10.902;2023-04-24T07:27:26;1.50;;;0.70;;
18170;SDS011;9210;48.358;10.902;2023-04-24T07:29:55;1.10;;;0.60;;
18170;SDS011;9210;48.358;10.902;2023-04-24T07:32:24;1.23;;;0.70;;
18170;SDS011;9210;48.358;10.902;2023-04-24T07:34:52;2.37;;;0.80;;
18170;SDS011;9210;48.358;10.902;2023-04-24T07:37:22;1.97;;;0.70;;
18170;SDS011;9210;48.358;10.902;2023-04-24T07:39:52;4.53;;;0.70;;
18170;SDS011;9210;48.358;10.902;2023-04-24T07:42:20;2.00;;;0.77;;
18170;SDS011;9210;48.358;10.902;2023-04-24T07:44:49;1.30;;;0.80;;
18170;SDS011;9210;48.358;10.902;2023-04-24T07:47:18;1.47;;;0.70;;
18170;SDS011;9210;48.358;10.902;2023-04-24T07:49:46;2.97;;;0.87;;
18170;SDS011;9210;48.358;10.902;2023-04-24T07:52:15;2.93;;;0.90;;
18170;SDS011;9210;48.358;10.902;2023-04-24T07:54:43;2.33;;;1.10;;
18170;SDS011;9210;48.358;10.902;2023-04-24T07:57:13;2.07;;;1.10;;
18170;SDS011;9210;48.358;10.902;2023-04-24T07:59:42;0.90;;;0.80;;
18170;SDS011;9210;48.358;10.902;2023-04-24T08:02:11;3.27;;;0.90;;
18170;SDS011;9210;48.358;10.902;2023-04-24T08:04:40;1.00;;;0.90;;
18170;SDS011;9210;48.358;10.902;2023-04-24T08:07:09;3.90;;;1.03;;
18170;SDS011;9210;48.358;10.902;2023-04-24T08:09:39;2.53;;;1.13;;
18170;SDS011;9210;48.358;10.902;2023-04-24T08:12:08;2.07;;;1.10;;
18170;SDS011;9210;48.358;10.902;2023-04-24T08:14:38;4.43;;;1.30;;
18170;SDS011;9210;48.358;10.902;2023-04-24T08:17:07;2.43;;;1.13;;
18170;SDS011;9210;48.358;10.902;2023-04-24T08:19:36;3.07;;;1.10;;
18170;SDS011;9210;48.358;10.902;2023-04-24T08:22:04;1.87;;;1.00;;
18170;SDS011;9210;48.358;10.902;2023-04-24T08:24:33;1.93;;;1.00;;
18170;SDS011;9210;48.358;10.902;2023-04-24T08:27:03;3.20;;;1.07;;
18170;SDS011;9210;48.358;10.902;2023-04-24T08:29:32;1.10;;;0.90;;
18170;SDS011;9210;48.358;10.902;2023-04-24T08:32:02;2.27;;;1.00;;
18170;SDS011;9210;48.358;10.902;2023-04-24T08:34:31;1.43;;;1.00;;
18170;SDS011;9210;48.358;10.902;2023-04-24T08:36:59;1.43;;;0.90;;
18170;SDS011;9210;48.358;10.902;2023-04-24T08:39:27;3.13;;;0.97;;
18170;SDS011;9210;48.358;10.902;2023-04-24T08:41:56;1.30;;;0.97;;
18170;SDS011;9210;48.358;10.902;2023-04-24T08:44:31;2.33;;;1.03;;
18170;SDS011;9210;48.358;10.902;2023-04-24T08:47:02;1.77;;;1.10;;
18170;SDS011;9210;48.358;10.902;2023-04-24T08:49:31;2.60;;;1.10;;
18170;SDS011;9210;48.358;10.902;2023-04-24T08:52:00;3.40;;;1.40;;
18170;SDS011;9210;48.358;10.902;2023-04-24T08:54:29;2.50;;;1.20;;
18170;SDS011;9210;48.358;10.902;2023-04-24T08:56:59;1.80;;;1.00;;
18170;SDS011;9210;48.358;10.902;2023-04-24T08:59:30;3.70;;;1.30;;
18170;SDS011;9210;48.358;10.902;2023-04-24T09:01:59;3.97;;;1.30;;
18170;SDS011;9210;48.358;10.902;2023-04-24T09:04:29;2.43;;;1.40;;
18170;SDS011;9210;48.358;10.902;2023-04-24T09:06:58;4.77;;;1.40;;
18170;SDS011;9210;48.358;10.902;2023-04-24T09:09:29;2.03;;;1.10;;
18170;SDS011;9210;48.358;10.902;2023-04-24T09:11:59;2.13;;;1.10;;
18170;SDS011;9210;48.358;10.902;2023-04-24T09:14:28;3.17;;;1.23;;
18170;SDS011;9210;48.358;10.902;2023-04-24T09:16:58;2.50;;;1.40;;
18170;SDS011;9210;48.358;10.902;2023-04-24T09:19:26;2.87;;;1.47;;
18170;SDS011;9210;48.358;10.902;2023-04-24T09:21:57;2.27;;;1.60;;
18170;SDS011;9210;48.358;10.902;2023-04-24T09:24:25;2.67;;;1.20;;
18170;SDS011;9210;48.358;10.902;2023-04-24T09:26:55;3.93;;;1.50;;
18170;SDS011;9210;48.358;10.902;2023-04-24T09:29:24;4.20;;;1.60;;
18170;SDS011;9210;48.358;10.902;2023-04-24T09:31:53;3.33;;;1.33;;
18170;SDS011;9210;48.358;10.902;2023-04-24T09:34:22;3.67;;;1.40;;
18170;SDS011;9210;48.358;10.902;2023-04-24T09:36:52;4.20;;;1.70;;
18170;SDS011;9210;48.358;10.902;2023-04-24T09:39:24;2.90;;;1.53;;
18170;SDS011;9210;48.358;10.902;2023-04-24T09:41:53;3.90;;;1.53;;
18170;SDS011;9210;48.358;10.902;2023-04-24T09:44:24;4.80;;;1.93;;
18170;SDS011;9210;48.358;10.902;2023-04-24T09:46:53;3.97;;;1.50;;
18170;SDS011;9210;48.358;10.902;2023-04-24T09:49:23;3.00;;;1.23;;
18170;SDS011;9210;48.358;10.902;2023-04-24T09:51:52;2.10;;;1.40;;
18170;SDS011;9210;48.358;10.902;2023-04-24T09:54:31;3.38;;;1.13;;
18170;SDS011;9210;48.358;10.902;2023-04-24T09:57:00;1.93;;;1.10;;
18170;SDS011;9210;48.358;10.902;2023-04-24T09:59:29;1.47;;;1.10;;
18170;SDS011;9210;48.358;10.902;2023-04-24T10:01:59;2.15;;;1.25;;
18170;SDS011;9210;48.358;10.902;2023-04-24T10:04:28;2.13;;;1.37;;
18170;SDS011;9210;48.358;10.902;2023-04-24T10:06:57;4.00;;;1.20;;
18170;SDS011;9210;48.358;10.902;2023-04-24T10:09:27;2.17;;;1.10;;
18170;SDS011;9210;48.358;10.902;2023-04-24T10:11:59;4.40;;;1.10;;
18170;SDS011;9210;48.358;10.902;2023-04-24T10:14:28;2.20;;;1.10;;
18170;SDS011;9210;48.358;10.902;2023-04-24T10:16:57;2.80;;;1.20;;
18170;SDS011;9210;48.358;10.902;2023-04-24T10:19:26;2.00;;;1.00;;
18170;SDS011;9210;48.358;10.902;2023-04-24T10:21:55;2.73;;;0.80;;
18170;SDS011;9210;48.358;10.902;2023-04-24T10:24:24;2.23;;;1.00;;
18170;SDS011;9210;48.358;10.902;2023-04-24T10:26:53;2.37;;;1.10;;
18170;SDS011;9210;48.358;10.902;2023-04-24T10:29:24;2.00;;;1.30;;
18170;SDS011;9210;48.358;10.902;2023-04-24T10:31:53;2.70;;;1.40;;
18170;SDS011;9210;48.358;10.902;2023-04-24T10:34:22;3.07;;;1.23;;
18170;SDS011;9210;48.358;10.902;2023-04-24T10:36:52;2.50;;;1.30;;
18170;SDS011;9210;48.358;10.902;2023-04-24T10:39:23;2.17;;;1.00;;
18170;SDS011;9210;48.358;10.902;2023-04-24T10:41:54;1.37;;;1.10;;
18170;SDS011;9210;48.358;10.902;2023-04-24T10:44:27;2.20;;;1.10;;
18170;SDS011;9210;48.358;10.902;2023-04-24T10:47:03;2.27;;;1.37;;
18170;SDS011;9210;48.358;10.902;2023-04-24T10:49:32;5.60;;;1.10;;
18170;SDS011;9210;48.358;10.902;2023-04-24T10:52:02;1.77;;;1.40;;
18170;SDS011;9210;48.358;10.902;2023-04-24T10:54:41;2.73;;;1.30;;
18170;SDS011;9210;48.358;10.902;2023-04-24T10:57:26;3.40;;;1.30;;
18170;SDS011;9210;48.358;10.902;2023-04-24T11:00:18;1.60;;;1.10;;
18170;SDS011;9210;48.358;10.902;2023-04-24T11:02:47;1.77;;;1.20;;
18170;SDS011;9210;48.358;10.902;2023-04-24T11:05:19;2.07;;;1.30;;
18170;SDS011;9210;48.358;10.902;2023-04-24T11:10:38;2.40;;;1.30;;
18170;SDS011;9210;48.358;10.902;2023-04-24T11:13:06;2.40;;;1.33;;
18170;SDS011;9210;48.358;10.902;2023-04-24T11:15:39;2.67;;;1.30;;
18170;SDS011;9210;48.358;10.902;2023-04-24T11:18:12;2.23;;;1.40;;
18170;SDS011;9210;48.358;10.902;2023-04-24T11:20:42;2.63;;;1.30;;
18170;SDS011;9210;48.358;10.902;2023-04-24T11:23:11;2.65;;;1.40;;
18170;SDS011;9210;48.358;10.902;2023-04-24T11:25:41;2.35;;;1.00;;
18170;SDS011;9210;48.358;10.902;2023-04-24T11:28:10;2.00;;;1.00;;
18170;SDS011;9210;48.358;10.902;2023-04-24T11:30:46;2.27;;;1.13;;
18170;SDS011;9210;48.358;10.902;2023-04-24T11:33:15;1.65;;;0.90;;
18170;SDS011;9210;48.358;10.902;2023-04-24T11:35:48;2.75;;;1.10;;
18170;SDS011;9210;48.358;10.902;2023-04-24T11:38:17;2.28;;;0.82;;
18170;SDS011;9210;48.358;10.902;2023-04-24T11:40:50;1.90;;;0.98;;
18170;SDS011;9210;48.358;10.902;2023-04-24T11:43:19;1.15;;;0.80;;
18170;SDS011;9210;48.358;10.902;2023-04-24T11:45:49;2.30;;;1.00;;
18170;SDS011;9210;48.358;10.902;2023-04-24T11:48:19;1.35;;;0.90;;
18170;SDS011;9210;48.358;10.902;2023-04-24T11:50:49;2.33;;;0.93;;
18170;SDS011;9210;48.358;10.902;2023-04-24T11:53:18;1.50;;;0.85;;
18170;SDS011;9210;48.358;10.902;2023-04-24T11:55:47;1.67;;;0.80;;
18170;SDS011;9210;48.358;10.902;2023-04-24T11:58:16;1.40;;;1.10;;
18170;SDS011;9210;48.358;10.902;2023-04-24T12:00:56;1.60;;;1.10;;
18170;SDS011;9210;48.358;10.902;2023-04-24T12:03:25;2.07;;;1.23;;
18170;SDS011;9210;48.358;10.902;2023-04-24T12:06:04;1.73;;;1.10;;
18170;SDS011;9210;48.358;10.902;2023-04-24T12:08:34;2.20;;;1.10;;
18170;SDS011;9210;48.358;10.902;2023-04-24T12:11:04;5.00;;;1.40;;
18170;SDS011;9210;48.358;10.902;2023-04-24T12:13:34;3.35;;;1.10;;
18170;SDS011;9210;48.358;10.902;2023-04-24T12:16:05;2.17;;;1.13;;
18170;SDS011;9210;48.358;10.902;2023-04-24T12:18:34;2.28;;;1.10;;
18170;SDS011;9210;48.358;10.902;2023-04-24T12:21:18;1.55;;;0.80;;
18170;SDS011;9210;48.358;10.902;2023-04-24T12:23:48;3.67;;;1.02;;
18170;SDS011;9210;48.358;10.902;2023-04-24T12:26:18;1.95;;;0.85;;
18170;SDS011;9210;48.358;10.902;2023-04-24T12:28:48;1.90;;;1.10;;
18170;SDS011;9210;48.358;10.902;2023-04-24T12:31:18;2.30;;;0.95;;
18170;SDS011;9210;48.358;10.902;2023-04-24T12:33:48;1.65;;;0.98;;
18170;SDS011;9210;48.358;10.902;2023-04-24T12:36:17;4.22;;;1.00;;
18170;SDS011;9210;48.358;10.902;2023-04-24T12:38:46;1.73;;;0.80;;
18170;SDS011;9210;48.358;10.902;2023-04-24T12:41:14;2.42;;;1.00;;
18170;SDS011;9210;48.358;10.902;2023-04-24T12:43:50;3.42;;;0.90;;
18170;SDS011;9210;48.358;10.902;2023-04-24T12:46:21;1.85;;;1.10;;
18170;SDS011;9210;48.358;10.902;2023-04-24T12:48:50;2.85;;;1.02;;
18170;SDS011;9210;48.358;10.902;2023-04-24T12:51:19;1.80;;;1.20;;
18170;SDS011;9210;48.358;10.902;2023-04-24T12:53:47;3.27;;;1.10;;
18170;SDS011;9210;48.358;10.902;2023-04-24T12:56:16;3.57;;;1.20;;
18170;SDS011;9210;48.358;10.902;2023-04-24T12:58:44;1.37;;;0.90;;
18170;SDS011;9210;48.358;10.902;2023-04-24T13:01:13;3.70;;;1.00;;
18170;SDS011;9210;48.358;10.902;2023-04-24T13:06:36;3.27;;;1.23;;
18170;SDS011;9210;48.358;10.902;2023-04-24T13:09:05;2.10;;;1.20;;
18170;SDS011;9210;48.358;10.902;2023-04-24T13:11:35;2.37;;;1.00;;
18170;SDS011;9210;48.358;10.902;2023-04-24T13:14:04;2.57;;;1.00;;
18170;SDS011;9210;48.358;10.902;2023-04-24T13:16:32;2.53;;;1.00;;
18170;SDS011;9210;48.358;10.902;2023-04-24T13:19:01;2.47;;;0.80;;
18170;SDS011;9210;48.358;10.902;2023-04-24T13:21:30;3.30;;;0.83;;
18170;SDS011;9210;48.358;10.902;2023-04-24T13:24:00;2.00;;;1.00;;
18170;SDS011;9210;48.358;10.902;2023-04-24T13:26:31;1.40;;;1.10;;
18170;SDS011;9210;48.358;10.902;2023-04-24T13:28:59;3.30;;;1.00;;
18170;SDS011;9210;48.358;10.902;2023-04-24T13:31:29;3.03;;;1.00;;
18170;SDS011;9210;48.358;10.902;2023-04-24T13:33:58;2.60;;;1.30;;
18170;SDS011;9210;48.358;10.902;2023-04-24T13:36:26;2.40;;;1.20;;
18170;SDS011;9210;48.358;10.902;2023-04-24T13:38:55;3.30;;;1.03;;
18170;SDS011;9210;48.358;10.902;2023-04-24T13:41:25;1.87;;;1.00;;
18170;SDS011;9210;48.358;10.902;2023-04-24T13:43:53;1.77;;;0.98;;
18170;SDS011;9210;48.358;10.902;2023-04-24T13:46:22;1.30;;;1.13;;
18170;SDS011;9210;48.358;10.902;2023-04-24T13:48:50;3.63;;;1.37;;
18170;SDS011;9210;48.358;10.902;2023-04-24T13:51:19;2.10;;;1.23;;
18170;SDS011;9210;48.358;10.902;2023-04-24T13:53:48;2.63;;;0.82;;
18170;SDS011;9210;48.358;10.902;2023-04-24T13:56:16;1.60;;;1.00;;
18170;SDS011;9210;48.358;10.902;2023-04-24T13:58:46;3.07;;;1.00;;
18170;SDS011;9210;48.358;10.902;2023-04-24T14:01:15;3.23;;;1.00;;
18170;SDS011;9210;48.358;10.902;2023-04-24T14:03:44;1.40;;;1.03;;
18170;SDS011;9210;48.358;10.902;2023-04-24T14:06:13;2.55;;;0.90;;
18170;SDS011;9210;48.358;10.902;2023-04-24T14:08:41;4.67;;;1.10;;
18170;SDS011;9210;48.358;10.902;2023-04-24T14:11:10;1.80;;;1.00;;
18170;SDS011;9210;48.358;10.902;2023-04-24T14:13:39;2.17;;;0.98;;
18170;SDS011;9210;48.358;10.902;2023-04-24T14:16:11;2.80;;;1.10;;
18170;SDS011;9210;48.358;10.902;2023-04-24T14:18:40;3.40;;;1.00;;
18170;SDS011;9210;48.358;10.902;2023-04-24T14:21:09;2.63;;;1.10;;
18170;SDS011;9210;48.358;10.902;2023-04-24T14:23:38;2.57;;;1.00;;
18170;SDS011;9210;48.358;10.902;2023-04-24T14:26:07;2.70;;;0.90;;
18170;SDS011;9210;48.358;10.902;2023-04-24T14:28:35;3.07;;;1.00;;
18170;SDS011;9210;48.358;10.902;2023-04-24T14:31:04;1.20;;;0.80;;
18170;SDS011;9210;48.358;10.902;2023-04-24T14:33:35;2.60;;;0.90;;
18170;SDS011;9210;48.358;10.902;2023-04-24T14:36:03;1.67;;;0.87;;
18170;SDS011;9210;48.358;10.902;2023-04-24T14:38:32;1.80;;;0.80;;
18170;SDS011;9210;48.358;10.902;2023-04-24T14:41:01;1.73;;;1.00;;
18170;SDS011;9210;48.358;10.902;2023-04-24T14:43:39;2.17;;;0.93;;
18170;SDS011;9210;48.358;10.902;2023-04-24T14:46:08;5.37;;;1.00;;
18170;SDS011;9210;48.358;10.902;2023-04-24T14:48:38;3.33;;;0.93;;
18170;SDS011;9210;48.358;10.902;2023-04-24T14:51:06;1.37;;;0.87;;
18170;SDS011;9210;48.358;10.902;2023-04-24T14:53:35;1.53;;;0.90;;
18170;SDS011;9210;48.358;10.902;2023-04-24T14:56:03;1.37;;;0.70;;
18170;SDS011;9210;48.358;10.902;2023-04-24T14:58:32;0.90;;;0.80;;
18170;SDS011;9210;48.358;10.902;2023-04-24T15:01:01;1.00;;;0.60;;
18170;SDS011;9210;48.358;10.902;2023-04-24T15:03:29;2.00;;;0.87;;
18170;SDS011;9210;48.358;10.902;2023-04-24T15:05:59;1.30;;;0.80;;
18170;SDS011;9210;48.358;10.902;2023-04-24T15:08:28;1.37;;;0.80;;
18170;SDS011;9210;48.358;10.902;2023-04-24T15:10:56;0.70;;;0.60;;